Captain Hank — WCR9342 — position and weather

sailwx.info

Track history (hours):
 
Tides and Currents Weather Stations Pressure Air Temp Water Temp Dewpoint Dewpoint Depression Visibility Wind Speed Wind Dir Waves Ship Positions

Captain Hank

Owner: SALISBURY TOWING CORPORATION, Havre de Grace, MD. More information available from US FCC via Universal Licensing System and Coast Guard Vessel Documentation Center.

Last reported at 2017-Sep-24 10:01 UTC. Time now 2017-Sep-24 10:20 UTC.
Position N 37°26' W 076°10'.

Length 24 m.

Type: Tug. MMSI: 367031390.

Date/timePositionNaut miles runAvg speedWind from/ knotsBaromVisibWave heightAir tempDewpointWater temp
2017-Sep-24 10:01N 37°26' W 076°10'34 7.2
2017-Sep-24 05:20N 36°53' W 076°20'3 8.1
2017-Sep-24 05:00N 36°51' W 076°18'2 4.5
2017-Sep-24 04:30N 36°50' W 076°16'1 2.9
2017-Sep-24 04:00N 36°50' W 076°17'0 0.0
2017-Sep-24 03:30N 36°50' W 076°17'2 4.5
2017-Sep-24 03:01N 36°51' W 076°20'1 1.3
2017-Sep-24 02:28N 36°52' W 076°20'151 3.1
2017-Sep-22 02:00N 39°23' W 076°06'3 6.4
2017-Sep-22 01:30N 39°25' W 076°03'3 6.1
2017-Sep-22 01:00N 39°28' W 076°03'3 6.1
2017-Sep-22 00:30N 39°30' W 076°05'3 6.8
2017-Sep-22 00:00N 39°34' W 076°06'1 1.4
2017-Sep-21 23:30N 39°33' W 076°05'4 8.6
2017-Sep-21 23:00N 39°29' W 076°05'4 8.1
2017-Sep-21 22:30N 39°25' W 076°03'5 8.9
2017-Sep-21 21:57N 39°22' W 076°08'16 8.3
2017-Sep-21 20:00N 39°09' W 076°19'4 8.7
2017-Sep-21 19:30N 39°04' W 076°21'4 8.9
2017-Sep-21 19:00N 39°00' W 076°23'4 8.1
2017-Sep-21 18:30N 38°56' W 076°24'4 8.3
2017-Sep-21 17:59N 38°52' W 076°26'5 0.2
2017-Sep-20 14:00N 38°47' W 076°27'3 6.9
2017-Sep-20 13:30N 38°50' W 076°26'3 6.7
2017-Sep-20 13:00N 38°54' W 076°25'3 6.8
2017-Sep-20 12:30N 38°57' W 076°24'3 6.7
2017-Sep-20 12:00N 39°00' W 076°23'5 6.3
2017-Sep-20 11:12N 39°05' W 076°24'6 6.3
2017-Sep-20 10:19N 39°10' W 076°26'2 6.8
2017-Sep-20 10:00N 39°11' W 076°28'3 6.8
2017-Sep-20 09:30N 39°13' W 076°32'3 6.5
2017-Sep-20 09:01N 39°15' W 076°35'1 2.2
2017-Sep-20 08:30N 39°15' W 076°36'0 0.1
2017-Sep-20 08:00N 39°15' W 076°36'1 2.2
2017-Sep-20 07:30N 39°15' W 076°35'0 0.7
2017-Sep-20 07:00N 39°15' W 076°35'3 5.7
2017-Sep-20 06:30N 39°13' W 076°32'3 6.2
2017-Sep-20 06:00N 39°11' W 076°29'10 5.3
2017-Sep-20 04:09N 39°15' W 076°17'1 6.4
2017-Sep-20 03:57N 39°16' W 076°16'3 6.3
2017-Sep-20 03:30N 39°18' W 076°13'3 6.5
2017-Sep-20 03:00N 39°21' W 076°11'3 6.3
2017-Sep-20 02:30N 39°22' W 076°08'3 5.9
2017-Sep-20 02:00N 39°24' W 076°04'3 5.2
2017-Sep-20 01:30N 39°26' W 076°02'2 4.9
2017-Sep-20 01:00N 39°28' W 076°03'2 4.6
2017-Sep-20 00:30N 39°30' W 076°05'2 4.9
2017-Sep-20 00:00N 39°32' W 076°05'0 1.0
2017-Sep-19 23:30N 39°33' W 076°04'2 4.1
2017-Sep-19 23:00N 39°34' W 076°06'0 0.0
2017-Sep-19 22:30N 39°34' W 076°06'0 0.0
2017-Sep-19 22:00N 39°34' W 076°06'0 0.0
2017-Sep-19 21:30N 39°34' W 076°06'0 0.0
2017-Sep-19 21:00N 39°34' W 076°06'0 0.0
2017-Sep-19 20:30N 39°34' W 076°06'0 0.3
2017-Sep-19 20:00N 39°34' W 076°06'0 0.5
2017-Sep-19 19:30N 39°34' W 076°06'0 0.4
2017-Sep-19 19:00N 39°34' W 076°06'0 0.0
2017-Sep-19 18:30N 39°34' W 076°06'0 0.0
2017-Sep-19 18:00N 39°34' W 076°06'0 0.0
2017-Sep-19 17:30N 39°34' W 076°06'0 0.0
2017-Sep-19 17:00N 39°34' W 076°06'0 0.0
2017-Sep-19 16:30N 39°34' W 076°06'0 0.0
2017-Sep-19 16:00N 39°34' W 076°06'0 0.0
2017-Sep-19 15:30N 39°34' W 076°06'0 0.0
2017-Sep-19 15:00N 39°34' W 076°06'0 0.6
2017-Sep-19 14:31N 39°34' W 076°06'0 0.7
2017-Sep-19 14:00N 39°34' W 076°06'0 0.0
2017-Sep-19 13:30N 39°34' W 076°06'0 0.0
2017-Sep-19 13:00N 39°34' W 076°06'0 0.0
2017-Sep-19 12:30N 39°34' W 076°06'0 0.0
2017-Sep-19 12:00N 39°34' W 076°06'0 0.0
2017-Sep-19 11:30N 39°34' W 076°06'0 0.0
2017-Sep-19 11:00N 39°34' W 076°06'0 0.2
2017-Sep-19 10:29N 39°34' W 076°06'0 0.0
2017-Sep-19 10:00N 39°34' W 076°06'0 0.0
2017-Sep-19 09:30N 39°34' W 076°06'0 0.0
2017-Sep-19 09:00N 39°34' W 076°06'0 0.0
2017-Sep-19 08:30N 39°34' W 076°06'0 0.0
2017-Sep-19 08:00N 39°34' W 076°06'0 0.0
2017-Sep-19 07:30N 39°34' W 076°06'0 0.0
2017-Sep-19 07:00N 39°34' W 076°06'0 0.0
2017-Sep-19 06:29N 39°34' W 076°06'0 0.0
2017-Sep-19 06:00N 39°34' W 076°06'0 0.0
2017-Sep-19 05:30N 39°34' W 076°06'0 0.0
2017-Sep-19 05:00N 39°34' W 076°06'0 0.0
2017-Sep-19 04:29N 39°34' W 076°06'0 0.0
2017-Sep-19 04:00N 39°34' W 076°06'0 0.0
2017-Sep-19 03:30N 39°34' W 076°06'0 0.0
2017-Sep-19 03:00N 39°34' W 076°06'0 0.0
2017-Sep-19 02:29N 39°34' W 076°06'0 0.0
2017-Sep-19 01:23N 39°34' W 076°06'0 0.0
2017-Sep-19 00:56N 39°34' W 076°06'0 0.0
2017-Sep-19 00:30N 39°34' W 076°06'0 0.0
2017-Sep-18 23:18N 39°34' W 076°06'0 0.0
2017-Sep-18 22:54N 39°34' W 076°06'0 0.0
2017-Sep-18 22:05N 39°34' W 076°06'0 0.1
2017-Sep-18 22:00N 39°34' W 076°06'0 0.0
2017-Sep-18 21:30N 39°34' W 076°06'0 0.0
2017-Sep-18 21:00N 39°34' W 076°06'0 0.2
2017-Sep-18 20:30N 39°34' W 076°06'0 0.0
2017-Sep-18 20:00N 39°34' W 076°06'0 0.0
2017-Sep-18 19:30N 39°34' W 076°06'0 0.1
2017-Sep-18 19:00N 39°34' W 076°06'0 0.1
2017-Sep-18 18:30N 39°34' W 076°06'0 0.0
2017-Sep-18 18:00N 39°34' W 076°06'0 0.0
2017-Sep-18 17:30N 39°34' W 076°06'0 0.1
2017-Sep-18 17:00N 39°34' W 076°06'0 0.0
2017-Sep-18 16:30N 39°34' W 076°06'0 0.0
2017-Sep-18 16:00N 39°34' W 076°06'0 0.0
2017-Sep-18 15:30N 39°34' W 076°06'0 0.0
2017-Sep-18 15:00N 39°34' W 076°06'0 0.0
2017-Sep-18 14:30N 39°34' W 076°06'0 0.0
2017-Sep-18 14:00N 39°34' W 076°06'0 0.0
2017-Sep-18 13:30N 39°34' W 076°06'0 0.0
2017-Sep-18 13:00N 39°34' W 076°06'0 0.0
2017-Sep-18 12:30N 39°34' W 076°06'0 0.0
2017-Sep-18 12:00N 39°34' W 076°06'0 0.0
2017-Sep-18 11:30N 39°34' W 076°06'0 0.0
2017-Sep-18 11:00N 39°34' W 076°06'0 0.1
2017-Sep-18 10:30N 39°34' W 076°06'0 0.0
2017-Sep-18 10:00N 39°34' W 076°06'0 0.0
2017-Sep-18 09:30N 39°34' W 076°06'0 0.0
2017-Sep-18 09:00N 39°34' W 076°06'0 0.0
2017-Sep-18 08:30N 39°34' W 076°06'0 0.0
2017-Sep-18 08:00N 39°34' W 076°06'0 0.0
2017-Sep-18 07:30N 39°34' W 076°06'0 0.0
2017-Sep-18 07:00N 39°34' W 076°06'0 0.0
2017-Sep-18 06:30N 39°34' W 076°06'0 0.0
2017-Sep-18 06:00N 39°34' W 076°06'0 0.0
2017-Sep-18 05:30N 39°34' W 076°06'0 0.0
2017-Sep-18 05:00N 39°34' W 076°06'0 0.0
2017-Sep-18 04:30N 39°34' W 076°06'0 0.0
2017-Sep-18 04:00N 39°34' W 076°06'0 0.0
2017-Sep-18 03:30N 39°34' W 076°06'0 0.0
2017-Sep-18 03:00N 39°34' W 076°06'0 0.0
2017-Sep-18 02:30N 39°34' W 076°06'0 0.0
2017-Sep-18 02:00N 39°34' W 076°06'0 0.0
2017-Sep-18 01:30N 39°34' W 076°06'0 0.0
2017-Sep-18 01:00N 39°34' W 076°06'0 0.0
2017-Sep-18 00:30N 39°34' W 076°06'0 0.0
2017-Sep-18 00:00N 39°34' W 076°06'0 0.0
2017-Sep-17 23:30N 39°34' W 076°06'0 0.0
2017-Sep-17 23:00N 39°34' W 076°06'0 0.0
2017-Sep-17 22:30N 39°34' W 076°06'0 0.0
2017-Sep-17 22:00N 39°34' W 076°06'0 0.0
2017-Sep-17 21:30N 39°34' W 076°06'0 0.0
2017-Sep-17 21:00N 39°34' W 076°06'0 0.0
2017-Sep-17 20:30N 39°34' W 076°06'0 0.0
2017-Sep-17 20:00N 39°34' W 076°06'0 0.0
2017-Sep-17 19:30N 39°34' W 076°06'0 0.0
2017-Sep-17 19:00N 39°34' W 076°06'0 0.0
2017-Sep-17 18:30N 39°34' W 076°06'0 0.0
2017-Sep-17 18:00N 39°34' W 076°06'0 0.0
2017-Sep-17 17:30N 39°34' W 076°06'0 0.0
2017-Sep-17 17:00N 39°34' W 076°06'0 0.0
2017-Sep-17 16:30N 39°34' W 076°06'0 0.0
2017-Sep-17 16:00N 39°34' W 076°06'0 0.0
2017-Sep-17 15:30N 39°34' W 076°06'0 0.0
2017-Sep-17 15:00N 39°34' W 076°06'0 0.0
2017-Sep-17 14:30N 39°34' W 076°06'0 0.0
2017-Sep-17 14:00N 39°34' W 076°06'0 0.0
2017-Sep-17 13:30N 39°34' W 076°06'0 0.0
2017-Sep-17 13:00N 39°34' W 076°06'0 0.0
2017-Sep-17 12:30N 39°34' W 076°06'0 0.0
2017-Sep-17 12:00N 39°34' W 076°06'0 0.0
2017-Sep-17 11:30N 39°34' W 076°06'0 0.0
2017-Sep-17 11:00N 39°34' W 076°06'0 0.0
2017-Sep-17 10:30N 39°34' W 076°06'0 0.0
2017-Sep-17 10:00N 39°34' W 076°06'0 0.0
2017-Sep-17 09:30N 39°34' W 076°06'0 0.0
2017-Sep-17 09:00N 39°34' W 076°06'0 0.0
2017-Sep-17 08:30N 39°34' W 076°06'0 0.0
2017-Sep-17 08:00N 39°34' W 076°06'0 0.0
2017-Sep-17 07:29N 39°34' W 076°06'0 0.0
2017-Sep-17 07:00N 39°34' W 076°06'0 0.0
2017-Sep-17 06:30N 39°34' W 076°06'0 0.0
2017-Sep-17 05:59N 39°34' W 076°06'0 0.0
2017-Sep-17 05:30N 39°34' W 076°06'0 0.0
2017-Sep-17 05:01N 39°34' W 076°06'0 0.0
2017-Sep-17 04:31N 39°34' W 076°06'0 0.0
2017-Sep-17 04:00N 39°34' W 076°06'0 0.0
2017-Sep-17 03:31N 39°34' W 076°06'0 0.0
2017-Sep-17 03:01N 39°34' W 076°06'0 0.0
2017-Sep-17 02:28N 39°34' W 076°06'0 0.0
2017-Sep-17 02:01N 39°34' W 076°06'0 0.0
2017-Sep-17 01:30N 39°34' W 076°06'0 0.0
2017-Sep-17 01:00N 39°34' W 076°06'0 0.0
2017-Sep-17 00:30N 39°34' W 076°06'0 0.2
2017-Sep-17 00:01N 39°34' W 076°06'4 7.3
2017-Sep-16 23:30N 39°31' W 076°05'4 7.7
2017-Sep-16 23:00N 39°27' W 076°02'4 7.4
2017-Sep-16 22:30N 39°24' W 076°04'5 8.9
2017-Sep-16 22:00N 39°22' W 076°09'15 8.6
2017-Sep-16 20:13N 39°12' W 076°24'2 8.1
2017-Sep-16 20:00N 39°11' W 076°26'4 7.7
2017-Sep-16 19:30N 39°12' W 076°31'4 7.8
2017-Sep-16 19:00N 39°15' W 076°34'2 3.3
2017-Sep-16 18:30N 39°15' W 076°36'0 0.0
2017-Sep-16 18:00N 39°15' W 076°36'1 2.3
2017-Sep-16 17:30N 39°16' W 076°35'0 0.0
2017-Sep-16 17:00N 39°16' W 076°35'0 0.0
2017-Sep-16 16:30N 39°16' W 076°35'0 0.1
2017-Sep-16 16:00N 39°16' W 076°35'0 0.1
2017-Sep-16 15:30N 39°16' W 076°35'0 0.0
2017-Sep-16 15:00N 39°16' W 076°35'0 0.0
2017-Sep-16 14:30N 39°16' W 076°35'0 0.1
2017-Sep-16 14:00N 39°16' W 076°35'2 3.7
2017-Sep-16 13:30N 39°14' W 076°33'4 6.9
2017-Sep-16 12:59N 39°12' W 076°30'3 6.7
2017-Sep-16 12:30N 39°11' W 076°26'4 6.8
2017-Sep-16 11:59N 39°13' W 076°22'4 7.2
2017-Sep-16 11:28N 39°15' W 076°18'3 7.0
2017-Sep-16 11:00N 39°17' W 076°15'3 6.3
2017-Sep-16 10:30N 39°19' W 076°12'3 6.0
2017-Sep-16 10:00N 39°21' W 076°09'3 5.7
2017-Sep-16 09:30N 39°23' W 076°06'3 5.5
2017-Sep-16 09:00N 39°24' W 076°03'3 5.7
2017-Sep-16 08:30N 39°27' W 076°02'3 5.8
2017-Sep-16 08:00N 39°29' W 076°05'3 5.7
2017-Sep-16 07:30N 39°32' W 076°05'1 2.4
2017-Sep-16 07:00N 39°33' W 076°05'1 2.1
2017-Sep-16 06:30N 39°34' W 076°06'0 0.5
2017-Sep-16 06:00N 39°34' W 076°06'1 1.5
2017-Sep-16 05:28N 39°34' W 076°05'3 6.8
2017-Sep-16 05:00N 39°30' W 076°05'3 7.0
2017-Sep-16 04:31N 39°28' W 076°03'4 7.2
2017-Sep-16 04:00N 39°24' W 076°03'4 7.2
2017-Sep-16 03:30N 39°22' W 076°08'4 7.1
2017-Sep-16 03:00N 39°20' W 076°11'3 6.9
2017-Sep-16 02:30N 39°17' W 076°13'4 7.1
2017-Sep-16 02:00N 39°14' W 076°15'4 7.4
2017-Sep-16 01:27N 39°10' W 076°18'4 8.1
2017-Sep-16 01:00N 39°07' W 076°20'5 8.3
2017-Sep-16 00:24N 39°02' W 076°22'3 8.2
2017-Sep-16 00:00N 38°59' W 076°23'5 8.3
2017-Sep-15 23:24N 38°54' W 076°25'4 8.3
2017-Sep-15 22:58N 38°51' W 076°26'43 2.7
2017-Sep-15 07:19N 38°12' W 076°02'43 5.7
2017-Sep-14 23:48N 38°51' W 076°26'9 8.2
2017-Sep-14 22:40N 38°60' W 076°23'2 8.6
2017-Sep-14 22:28N 39°01' W 076°22'14 7.9
2017-Sep-14 20:39N 39°14' W 076°14'2 7.6
2017-Sep-14 20:24N 39°16' W 076°14'3 7.4
2017-Sep-14 20:00N 39°19' W 076°13'4 7.0
2017-Sep-14 19:28N 39°21' W 076°10'3 6.9
2017-Sep-14 19:00N 39°23' W 076°06'3 6.9
2017-Sep-14 18:30N 39°25' W 076°02'3 6.2
2017-Sep-14 18:00N 39°28' W 076°03'3 6.1
2017-Sep-14 17:30N 39°30' W 076°05'3 6.5
2017-Sep-14 17:00N 39°33' W 076°05'1 2.4
2017-Sep-14 16:30N 39°34' W 076°06'0 0.3
2017-Sep-14 16:00N 39°34' W 076°06'0 0.0
2017-Sep-14 15:30N 39°34' W 076°06'0 0.0
2017-Sep-14 15:00N 39°34' W 076°06'0 0.0
2017-Sep-14 14:30N 39°34' W 076°06'0 0.0
2017-Sep-14 14:01N 39°34' W 076°06'0 0.0
2017-Sep-14 13:31N 39°34' W 076°06'0 0.0
2017-Sep-14 13:00N 39°34' W 076°06'0 0.0
2017-Sep-14 12:31N 39°34' W 076°06'0 0.0
2017-Sep-14 12:00N 39°34' W 076°06'0 0.0
2017-Sep-14 11:30N 39°34' W 076°06'0 0.0
2017-Sep-14 11:00N 39°34' W 076°06'0 0.0
2017-Sep-14 10:30N 39°34' W 076°06'  
Track history (hours):
 
Tides and Currents Weather Stations Pressure Air Temp Water Temp Dewpoint Dewpoint Depression Visibility Wind Speed Wind Dir Waves Ship Positions

Captain Hank

Owner: SALISBURY TOWING CORPORATION, Havre de Grace, MD. More information available from US FCC via Universal Licensing System and Coast Guard Vessel Documentation Center.

Last reported at 2017-Sep-24 10:01 UTC. Time now 2017-Sep-24 10:20 UTC.
Position N 37°26' W 076°10'.

Length 24 m.

Type: Tug. MMSI: 367031390.

Date/timePositionNaut miles runAvg speedWind from/ knotsBaromVisibWave heightAir tempDewpointWater temp
2017-Sep-24 10:01N 37°26' W 076°10'34 7.2
2017-Sep-24 05:20N 36°53' W 076°20'3 8.1
2017-Sep-24 05:00N 36°51' W 076°18'2 4.5
2017-Sep-24 04:30N 36°50' W 076°16'1 2.9
2017-Sep-24 04:00N 36°50' W 076°17'0 0.0
2017-Sep-24 03:30N 36°50' W 076°17'2 4.5
2017-Sep-24 03:01N 36°51' W 076°20'1 1.3
2017-Sep-24 02:28N 36°52' W 076°20'151 3.1
2017-Sep-22 02:00N 39°23' W 076°06'3 6.4
2017-Sep-22 01:30N 39°25' W 076°03'3 6.1
2017-Sep-22 01:00N 39°28' W 076°03'3 6.1
2017-Sep-22 00:30N 39°30' W 076°05'3 6.8
2017-Sep-22 00:00N 39°34' W 076°06'1 1.4
2017-Sep-21 23:30N 39°33' W 076°05'4 8.6
2017-Sep-21 23:00N 39°29' W 076°05'4 8.1
2017-Sep-21 22:30N 39°25' W 076°03'5 8.9
2017-Sep-21 21:57N 39°22' W 076°08'16 8.3
2017-Sep-21 20:00N 39°09' W 076°19'4 8.7
2017-Sep-21 19:30N 39°04' W 076°21'4 8.9
2017-Sep-21 19:00N 39°00' W 076°23'4 8.1
2017-Sep-21 18:30N 38°56' W 076°24'4 8.3
2017-Sep-21 17:59N 38°52' W 076°26'5 0.2
2017-Sep-20 14:00N 38°47' W 076°27'3 6.9
2017-Sep-20 13:30N 38°50' W 076°26'3 6.7
2017-Sep-20 13:00N 38°54' W 076°25'3 6.8
2017-Sep-20 12:30N 38°57' W 076°24'3 6.7
2017-Sep-20 12:00N 39°00' W 076°23'5 6.3
2017-Sep-20 11:12N 39°05' W 076°24'6 6.3
2017-Sep-20 10:19N 39°10' W 076°26'2 6.8
2017-Sep-20 10:00N 39°11' W 076°28'3 6.8
2017-Sep-20 09:30N 39°13' W 076°32'3 6.5
2017-Sep-20 09:01N 39°15' W 076°35'1 2.2
2017-Sep-20 08:30N 39°15' W 076°36'0 0.1
2017-Sep-20 08:00N 39°15' W 076°36'1 2.2
2017-Sep-20 07:30N 39°15' W 076°35'0 0.7
2017-Sep-20 07:00N 39°15' W 076°35'3 5.7
2017-Sep-20 06:30N 39°13' W 076°32'3 6.2
2017-Sep-20 06:00N 39°11' W 076°29'10 5.3
2017-Sep-20 04:09N 39°15' W 076°17'1 6.4
2017-Sep-20 03:57N 39°16' W 076°16'3 6.3
2017-Sep-20 03:30N 39°18' W 076°13'3 6.5
2017-Sep-20 03:00N 39°21' W 076°11'3 6.3
2017-Sep-20 02:30N 39°22' W 076°08'3 5.9
2017-Sep-20 02:00N 39°24' W 076°04'3 5.2
2017-Sep-20 01:30N 39°26' W 076°02'2 4.9
2017-Sep-20 01:00N 39°28' W 076°03'2 4.6
2017-Sep-20 00:30N 39°30' W 076°05'2 4.9
2017-Sep-20 00:00N 39°32' W 076°05'0 1.0
2017-Sep-19 23:30N 39°33' W 076°04'2 4.1
2017-Sep-19 23:00N 39°34' W 076°06'0 0.0
2017-Sep-19 22:30N 39°34' W 076°06'0 0.0
2017-Sep-19 22:00N 39°34' W 076°06'0 0.0
2017-Sep-19 21:30N 39°34' W 076°06'0 0.0
2017-Sep-19 21:00N 39°34' W 076°06'0 0.0
2017-Sep-19 20:30N 39°34' W 076°06'0 0.3
2017-Sep-19 20:00N 39°34' W 076°06'0 0.5
2017-Sep-19 19:30N 39°34' W 076°06'0 0.4
2017-Sep-19 19:00N 39°34' W 076°06'0 0.0
2017-Sep-19 18:30N 39°34' W 076°06'0 0.0
2017-Sep-19 18:00N 39°34' W 076°06'0 0.0
2017-Sep-19 17:30N 39°34' W 076°06'0 0.0
2017-Sep-19 17:00N 39°34' W 076°06'0 0.0
2017-Sep-19 16:30N 39°34' W 076°06'0 0.0
2017-Sep-19 16:00N 39°34' W 076°06'0 0.0
2017-Sep-19 15:30N 39°34' W 076°06'0 0.0
2017-Sep-19 15:00N 39°34' W 076°06'0 0.6
2017-Sep-19 14:31N 39°34' W 076°06'0 0.7
2017-Sep-19 14:00N 39°34' W 076°06'0 0.0
2017-Sep-19 13:30N 39°34' W 076°06'0 0.0
2017-Sep-19 13:00N 39°34' W 076°06'0 0.0
2017-Sep-19 12:30N 39°34' W 076°06'0 0.0
2017-Sep-19 12:00N 39°34' W 076°06'0 0.0
2017-Sep-19 11:30N 39°34' W 076°06'0 0.0
2017-Sep-19 11:00N 39°34' W 076°06'0 0.2
2017-Sep-19 10:29N 39°34' W 076°06'0 0.0
2017-Sep-19 10:00N 39°34' W 076°06'0 0.0
2017-Sep-19 09:30N 39°34' W 076°06'0 0.0
2017-Sep-19 09:00N 39°34' W 076°06'0 0.0
2017-Sep-19 08:30N 39°34' W 076°06'0 0.0
2017-Sep-19 08:00N 39°34' W 076°06'0 0.0
2017-Sep-19 07:30N 39°34' W 076°06'0 0.0
2017-Sep-19 07:00N 39°34' W 076°06'0 0.0
2017-Sep-19 06:29N 39°34' W 076°06'0 0.0
2017-Sep-19 06:00N 39°34' W 076°06'0 0.0
2017-Sep-19 05:30N 39°34' W 076°06'0 0.0
2017-Sep-19 05:00N 39°34' W 076°06'0 0.0
2017-Sep-19 04:29N 39°34' W 076°06'0 0.0
2017-Sep-19 04:00N 39°34' W 076°06'0 0.0
2017-Sep-19 03:30N 39°34' W 076°06'0 0.0
2017-Sep-19 03:00N 39°34' W 076°06'0 0.0
2017-Sep-19 02:29N 39°34' W 076°06'0 0.0
2017-Sep-19 01:23N 39°34' W 076°06'0 0.0
2017-Sep-19 00:56N 39°34' W 076°06'0 0.0
2017-Sep-19 00:30N 39°34' W 076°06'0 0.0
2017-Sep-18 23:18N 39°34' W 076°06'0 0.0
2017-Sep-18 22:54N 39°34' W 076°06'0 0.0
2017-Sep-18 22:05N 39°34' W 076°06'0 0.1
2017-Sep-18 22:00N 39°34' W 076°06'0 0.0
2017-Sep-18 21:30N 39°34' W 076°06'0 0.0
2017-Sep-18 21:00N 39°34' W 076°06'0 0.2
2017-Sep-18 20:30N 39°34' W 076°06'0 0.0
2017-Sep-18 20:00N 39°34' W 076°06'0 0.0
2017-Sep-18 19:30N 39°34' W 076°06'0 0.1
2017-Sep-18 19:00N 39°34' W 076°06'0 0.1
2017-Sep-18 18:30N 39°34' W 076°06'0 0.0
2017-Sep-18 18:00N 39°34' W 076°06'0 0.0
2017-Sep-18 17:30N 39°34' W 076°06'0 0.1
2017-Sep-18 17:00N 39°34' W 076°06'0 0.0
2017-Sep-18 16:30N 39°34' W 076°06'0 0.0
2017-Sep-18 16:00N 39°34' W 076°06'0 0.0
2017-Sep-18 15:30N 39°34' W 076°06'0 0.0
2017-Sep-18 15:00N 39°34' W 076°06'0 0.0
2017-Sep-18 14:30N 39°34' W 076°06'0 0.0
2017-Sep-18 14:00N 39°34' W 076°06'0 0.0
2017-Sep-18 13:30N 39°34' W 076°06'0 0.0
2017-Sep-18 13:00N 39°34' W 076°06'0 0.0
2017-Sep-18 12:30N 39°34' W 076°06'0 0.0
2017-Sep-18 12:00N 39°34' W 076°06'0 0.0
2017-Sep-18 11:30N 39°34' W 076°06'0 0.0
2017-Sep-18 11:00N 39°34' W 076°06'0 0.1
2017-Sep-18 10:30N 39°34' W 076°06'0 0.0
2017-Sep-18 10:00N 39°34' W 076°06'0 0.0
2017-Sep-18 09:30N 39°34' W 076°06'0 0.0
2017-Sep-18 09:00N 39°34' W 076°06'0 0.0
2017-Sep-18 08:30N 39°34' W 076°06'0 0.0
2017-Sep-18 08:00N 39°34' W 076°06'0 0.0
2017-Sep-18 07:30N 39°34' W 076°06'0 0.0
2017-Sep-18 07:00N 39°34' W 076°06'0 0.0
2017-Sep-18 06:30N 39°34' W 076°06'0 0.0
2017-Sep-18 06:00N 39°34' W 076°06'0 0.0
2017-Sep-18 05:30N 39°34' W 076°06'0 0.0
2017-Sep-18 05:00N 39°34' W 076°06'0 0.0
2017-Sep-18 04:30N 39°34' W 076°06'0 0.0
2017-Sep-18 04:00N 39°34' W 076°06'0 0.0
2017-Sep-18 03:30N 39°34' W 076°06'0 0.0
2017-Sep-18 03:00N 39°34' W 076°06'0 0.0
2017-Sep-18 02:30N 39°34' W 076°06'0 0.0
2017-Sep-18 02:00N 39°34' W 076°06'0 0.0
2017-Sep-18 01:30N 39°34' W 076°06'0 0.0
2017-Sep-18 01:00N 39°34' W 076°06'0 0.0
2017-Sep-18 00:30N 39°34' W 076°06'0 0.0
2017-Sep-18 00:00N 39°34' W 076°06'0 0.0
2017-Sep-17 23:30N 39°34' W 076°06'0 0.0
2017-Sep-17 23:00N 39°34' W 076°06'0 0.0
2017-Sep-17 22:30N 39°34' W 076°06'0 0.0
2017-Sep-17 22:00N 39°34' W 076°06'0 0.0
2017-Sep-17 21:30N 39°34' W 076°06'0 0.0
2017-Sep-17 21:00N 39°34' W 076°06'0 0.0
2017-Sep-17 20:30N 39°34' W 076°06'0 0.0
2017-Sep-17 20:00N 39°34' W 076°06'0 0.0
2017-Sep-17 19:30N 39°34' W 076°06'0 0.0
2017-Sep-17 19:00N 39°34' W 076°06'0 0.0
2017-Sep-17 18:30N 39°34' W 076°06'0 0.0
2017-Sep-17 18:00N 39°34' W 076°06'0 0.0
2017-Sep-17 17:30N 39°34' W 076°06'0 0.0
2017-Sep-17 17:00N 39°34' W 076°06'0 0.0
2017-Sep-17 16:30N 39°34' W 076°06'0 0.0
2017-Sep-17 16:00N 39°34' W 076°06'0 0.0
2017-Sep-17 15:30N 39°34' W 076°06'0 0.0
2017-Sep-17 15:00N 39°34' W 076°06'0 0.0
2017-Sep-17 14:30N 39°34' W 076°06'0 0.0
2017-Sep-17 14:00N 39°34' W 076°06'0 0.0
2017-Sep-17 13:30N 39°34' W 076°06'0 0.0
2017-Sep-17 13:00N 39°34' W 076°06'0 0.0
2017-Sep-17 12:30N 39°34' W 076°06'0 0.0
2017-Sep-17 12:00N 39°34' W 076°06'0 0.0
2017-Sep-17 11:30N 39°34' W 076°06'0 0.0
2017-Sep-17 11:00N 39°34' W 076°06'0 0.0
2017-Sep-17 10:30N 39°34' W 076°06'0 0.0
2017-Sep-17 10:00N 39°34' W 076°06'0 0.0
2017-Sep-17 09:30N 39°34' W 076°06'0 0.0
2017-Sep-17 09:00N 39°34' W 076°06'0 0.0
2017-Sep-17 08:30N 39°34' W 076°06'0 0.0
2017-Sep-17 08:00N 39°34' W 076°06'0 0.0
2017-Sep-17 07:29N 39°34' W 076°06'0 0.0
2017-Sep-17 07:00N 39°34' W 076°06'0 0.0
2017-Sep-17 06:30N 39°34' W 076°06'0 0.0
2017-Sep-17 05:59N 39°34' W 076°06'0 0.0
2017-Sep-17 05:30N 39°34' W 076°06'0 0.0
2017-Sep-17 05:01N 39°34' W 076°06'0 0.0
2017-Sep-17 04:31N 39°34' W 076°06'0 0.0
2017-Sep-17 04:00N 39°34' W 076°06'0 0.0
2017-Sep-17 03:31N 39°34' W 076°06'0 0.0
2017-Sep-17 03:01N 39°34' W 076°06'0 0.0
2017-Sep-17 02:28N 39°34' W 076°06'0 0.0
2017-Sep-17 02:01N 39°34' W 076°06'0 0.0
2017-Sep-17 01:30N 39°34' W 076°06'0 0.0
2017-Sep-17 01:00N 39°34' W 076°06'0 0.0
2017-Sep-17 00:30N 39°34' W 076°06'0 0.2
2017-Sep-17 00:01N 39°34' W 076°06'4 7.3
2017-Sep-16 23:30N 39°31' W 076°05'4 7.7
2017-Sep-16 23:00N 39°27' W 076°02'4 7.4
2017-Sep-16 22:30N 39°24' W 076°04'5 8.9
2017-Sep-16 22:00N 39°22' W 076°09'15 8.6
2017-Sep-16 20:13N 39°12' W 076°24'2 8.1
2017-Sep-16 20:00N 39°11' W 076°26'4 7.7
2017-Sep-16 19:30N 39°12' W 076°31'4 7.8
2017-Sep-16 19:00N 39°15' W 076°34'2 3.3
2017-Sep-16 18:30N 39°15' W 076°36'0 0.0
2017-Sep-16 18:00N 39°15' W 076°36'1 2.3
2017-Sep-16 17:30N 39°16' W 076°35'0 0.0
2017-Sep-16 17:00N 39°16' W 076°35'0 0.0
2017-Sep-16 16:30N 39°16' W 076°35'0 0.1
2017-Sep-16 16:00N 39°16' W 076°35'0 0.1
2017-Sep-16 15:30N 39°16' W 076°35'0 0.0
2017-Sep-16 15:00N 39°16' W 076°35'0 0.0
2017-Sep-16 14:30N 39°16' W 076°35'0 0.1
2017-Sep-16 14:00N 39°16' W 076°35'2 3.7
2017-Sep-16 13:30N 39°14' W 076°33'4 6.9
2017-Sep-16 12:59N 39°12' W 076°30'3 6.7
2017-Sep-16 12:30N 39°11' W 076°26'4 6.8
2017-Sep-16 11:59N 39°13' W 076°22'4 7.2
2017-Sep-16 11:28N 39°15' W 076°18'3 7.0
2017-Sep-16 11:00N 39°17' W 076°15'3 6.3
2017-Sep-16 10:30N 39°19' W 076°12'3 6.0
2017-Sep-16 10:00N 39°21' W 076°09'3 5.7
2017-Sep-16 09:30N 39°23' W 076°06'3 5.5
2017-Sep-16 09:00N 39°24' W 076°03'3 5.7
2017-Sep-16 08:30N 39°27' W 076°02'3 5.8
2017-Sep-16 08:00N 39°29' W 076°05'3 5.7
2017-Sep-16 07:30N 39°32' W 076°05'1 2.4
2017-Sep-16 07:00N 39°33' W 076°05'1 2.1
2017-Sep-16 06:30N 39°34' W 076°06'0 0.5
2017-Sep-16 06:00N 39°34' W 076°06'1 1.5
2017-Sep-16 05:28N 39°34' W 076°05'3 6.8
2017-Sep-16 05:00N 39°30' W 076°05'3 7.0
2017-Sep-16 04:31N 39°28' W 076°03'4 7.2
2017-Sep-16 04:00N 39°24' W 076°03'4 7.2
2017-Sep-16 03:30N 39°22' W 076°08'4 7.1
2017-Sep-16 03:00N 39°20' W 076°11'3 6.9
2017-Sep-16 02:30N 39°17' W 076°13'4 7.1
2017-Sep-16 02:00N 39°14' W 076°15'4 7.4
2017-Sep-16 01:27N 39°10' W 076°18'4 8.1
2017-Sep-16 01:00N 39°07' W 076°20'5 8.3
2017-Sep-16 00:24N 39°02' W 076°22'3 8.2
2017-Sep-16 00:00N 38°59' W 076°23'5 8.3
2017-Sep-15 23:24N 38°54' W 076°25'4 8.3
2017-Sep-15 22:58N 38°51' W 076°26'43 2.7
2017-Sep-15 07:19N 38°12' W 076°02'43 5.7
2017-Sep-14 23:48N 38°51' W 076°26'9 8.2
2017-Sep-14 22:40N 38°60' W 076°23'2 8.6
2017-Sep-14 22:28N 39°01' W 076°22'14 7.9
2017-Sep-14 20:39N 39°14' W 076°14'2 7.6
2017-Sep-14 20:24N 39°16' W 076°14'3 7.4
2017-Sep-14 20:00N 39°19' W 076°13'4 7.0
2017-Sep-14 19:28N 39°21' W 076°10'3 6.9
2017-Sep-14 19:00N 39°23' W 076°06'3 6.9
2017-Sep-14 18:30N 39°25' W 076°02'3 6.2
2017-Sep-14 18:00N 39°28' W 076°03'3 6.1
2017-Sep-14 17:30N 39°30' W 076°05'3 6.5
2017-Sep-14 17:00N 39°33' W 076°05'1 2.4
2017-Sep-14 16:30N 39°34' W 076°06'0 0.3
2017-Sep-14 16:00N 39°34' W 076°06'0 0.0
2017-Sep-14 15:30N 39°34' W 076°06'0 0.0
2017-Sep-14 15:00N 39°34' W 076°06'0 0.0
2017-Sep-14 14:30N 39°34' W 076°06'0 0.0
2017-Sep-14 14:01N 39°34' W 076°06'0 0.0
2017-Sep-14 13:31N 39°34' W 076°06'0 0.0
2017-Sep-14 13:00N 39°34' W 076°06'0 0.0
2017-Sep-14 12:31N 39°34' W 076°06'0 0.0
2017-Sep-14 12:00N 39°34' W 076°06'0 0.0
2017-Sep-14 11:30N 39°34' W 076°06'0 0.0
2017-Sep-14 11:00N 39°34' W 076°06'0 0.0
2017-Sep-14 10:30N 39°34' W 076°06'  

Dump ship's entire track history